Time;durP1;ratioP1;P1;durP2;ratioP2;P2;SDS_P1;SDS_P2;PMS_P1;PMS_P2;Temp;Humidity;BMP_temperature;BMP_pressure;BME280_temperature;BME280_humidity;BME280_pressure;Samples;Min_cycle;Max_cycle;Signal;HPM_P1;HPM_P2
2023/05/31 00:03:47;;;;;;;6.13;1.80;;;;;;;;;;8296093;28;20041;-61
2023/05/31 00:07:47;;;;;;;4.70;2.00;;;;;;;;;;8297486;28;21203;-60
2023/05/31 00:11:47;;;;;;;6.20;1.90;;;;;;;;;;8298892;28;20025;-60
2023/05/31 00:15:47;;;;;;;9.63;2.35;;;;;;;;;;8297824;28;20056;-61
2023/05/31 00:19:48;;;;;;;5.75;1.90;;;;;;;;;;8298642;28;20069;-60
2023/05/31 00:23:48;;;;;;;3.60;1.63;;;;;;;;;;8297211;28;20025;-60
2023/05/31 00:27:48;;;;;;;6.25;1.50;;;;;;;;;;8298953;28;20032;-60
2023/05/31 00:31:48;;;;;;;8.57;2.23;;;;;;;;;;8297902;28;20033;-60
2023/05/31 00:35:48;;;;;;;6.95;2.17;;;;;;;;;;8298573;28;20480;-60
2023/05/31 00:39:49;;;;;;;7.13;2.30;;;;;;;;;;8298435;28;20037;-60
2023/05/31 00:43:49;;;;;;;5.93;2.03;;;;;;;;;;8302661;28;20033;-61
2023/05/31 00:47:49;;;;;;;5.78;1.70;;;;;;;;;;8302800;28;20041;-60
2023/05/31 00:51:50;;;;;;;5.65;1.90;;;;;;;;;;8299860;28;20061;-61
2023/05/31 00:55:51;;;;;;;6.80;2.50;;;;;;;;;;8302880;28;20478;-60
2023/05/31 00:59:51;;;;;;;4.18;1.92;;;;;;;;;;8302082;28;20094;-61
2023/05/31 01:03:52;;;;;;;5.90;2.07;;;;;;;;;;8301557;28;20048;-61
2023/05/31 01:07:52;;;;;;;9.80;2.17;;;;;;;;;;8300579;28;20036;-60
2023/05/31 01:12:11;;;;;;;7.10;1.90;;;;;;;;;;8304288;28;20021;-61
2023/05/31 01:20:50;;;;;;;17.95;2.70;;;;;;;;;;8291194;28;20090;-60
2023/05/31 01:25:14;;;;;;;6.53;2.28;;;;;;;;;;8297007;28;20034;-60
2023/05/31 01:29:18;;;;;;;8.48;2.50;;;;;;;;;;8294189;28;20037;-60
2023/05/31 01:33:19;;;;;;;5.55;2.15;;;;;;;;;;8298855;28;20030;-61
2023/05/31 01:37:19;;;;;;;8.73;1.92;;;;;;;;;;8297814;28;20044;-60
2023/05/31 01:41:20;;;;;;;6.53;2.13;;;;;;;;;;8299079;28;20033;-61
2023/05/31 01:45:21;;;;;;;5.88;2.25;;;;;;;;;;8300100;28;20037;-61
2023/05/31 01:49:22;;;;;;;4.43;1.80;;;;;;;;;;8301444;28;20025;-60
2023/05/31 01:53:22;;;;;;;5.30;2.25;;;;;;;;;;8300113;28;20658;-60
2023/05/31 01:57:22;;;;;;;7.63;2.27;;;;;;;;;;8299808;28;20653;-60
2023/05/31 02:01:23;;;;;;;6.00;2.22;;;;;;;;;;8299480;28;20045;-60
2023/05/31 02:05:23;;;;;;;4.82;2.00;;;;;;;;;;8299141;28;20670;-61
2023/05/31 02:09:23;;;;;;;9.63;2.13;;;;;;;;;;8297070;28;20040;-60
2023/05/31 02:13:27;;;;;;;4.88;1.98;;;;;;;;;;8302153;28;20908;-60
2023/05/31 02:17:28;;;;;;;;;;;;;;;;;;8300019;28;20053;-60
2023/05/31 02:21:29;;;;;;;6.88;2.22;;;;;;;;;;8299790;28;20476;-60
2023/05/31 02:25:29;;;;;;;3.97;1.97;;;;;;;;;;8299341;28;20127;-60
2023/05/31 02:29:29;;;;;;;7.45;1.95;;;;;;;;;;8297871;28;20263;-62
2023/05/31 02:33:30;;;;;;;6.10;1.95;;;;;;;;;;8299792;28;20039;-60
2023/05/31 02:37:31;;;;;;;6.18;2.38;;;;;;;;;;8300631;28;20030;-60
2023/05/31 02:41:31;;;;;;;5.13;2.10;;;;;;;;;;8299859;28;20465;-60
2023/05/31 02:45:31;;;;;;;8.05;2.10;;;;;;;;;;8298089;28;20041;-61
2023/05/31 02:49:31;;;;;;;5.57;1.85;;;;;;;;;;8297182;28;20040;-61
2023/05/31 02:53:31;;;;;;;4.77;2.30;;;;;;;;;;8300862;28;20793;-60
2023/05/31 02:57:32;;;;;;;4.50;2.00;;;;;;;;;;8297068;28;20822;-60
2023/05/31 03:01:32;;;;;;;8.77;2.60;;;;;;;;;;8299923;28;20478;-61
2023/05/31 03:05:33;;;;;;;6.63;2.40;;;;;;;;;;8299578;28;20148;-60
2023/05/31 03:09:33;;;;;;;8.23;2.28;;;;;;;;;;8297322;28;20681;-60
2023/05/31 03:13:34;;;;;;;6.27;2.23;;;;;;;;;;8297807;28;20588;-60
2023/05/31 03:17:37;;;;;;;7.03;2.15;;;;;;;;;;8297832;28;20040;-61
2023/05/31 03:21:37;;;;;;;8.48;2.10;;;;;;;;;;8296347;28;20434;-60
2023/05/31 03:25:37;;;;;;;8.52;2.08;;;;;;;;;;8299028;28;20037;-60
2023/05/31 03:29:38;;;;;;;7.38;2.75;;;;;;;;;;8298380;28;20858;-60
2023/05/31 03:33:38;;;;;;;7.07;2.20;;;;;;;;;;8297161;28;20037;-60
2023/05/31 03:37:38;;;;;;;7.32;2.15;;;;;;;;;;8299159;28;20032;-60
2023/05/31 03:41:39;;;;;;;7.88;1.90;;;;;;;;;;8295765;28;20030;-61
2023/05/31 03:45:39;;;;;;;6.40;2.28;;;;;;;;;;8295325;28;20967;-60
2023/05/31 03:49:40;;;;;;;6.47;2.08;;;;;;;;;;8296418;28;20040;-60
2023/05/31 03:53:40;;;;;;;6.15;2.20;;;;;;;;;;8296342;28;20538;-60
2023/05/31 03:57:40;;;;;;;5.82;2.30;;;;;;;;;;8296882;28;20881;-61
2023/05/31 04:01:41;;;;;;;5.30;2.05;;;;;;;;;;8293974;28;20489;-60
2023/05/31 04:05:41;;;;;;;4.38;2.22;;;;;;;;;;8294028;28;20033;-60
2023/05/31 04:09:41;;;;;;;7.05;2.25;;;;;;;;;;8294514;28;20124;-60
2023/05/31 04:13:42;;;;;;;8.37;2.20;;;;;;;;;;8296654;28;20026;-61
2023/05/31 04:17:42;;;;;;;8.60;2.13;;;;;;;;;;8301260;28;20136;-60
2023/05/31 04:21:42;;;;;;;5.55;2.33;;;;;;;;;;8300539;28;20081;-60
2023/05/31 04:25:44;;;;;;;4.80;2.00;;;;;;;;;;8303484;28;20033;-60
2023/05/31 04:29:50;;;;;;;12.40;2.45;;;;;;;;;;8301943;28;20048;-61
2023/05/31 04:33:52;;;;;;;5.90;2.22;;;;;;;;;;8303808;28;20033;-60
2023/05/31 04:37:58;;;;;;;8.23;2.33;;;;;;;;;;8304076;28;20027;-61
2023/05/31 04:42:02;;;;;;;7.20;2.65;;;;;;;;;;8304543;28;20027;-60
2023/05/31 04:46:02;;;;;;;7.20;2.05;;;;;;;;;;8301604;28;20049;-60
2023/05/31 04:50:03;;;;;;;5.25;2.20;;;;;;;;;;8301284;28;20079;-60
2023/05/31 04:54:03;;;;;;;10.30;2.78;;;;;;;;;;8300492;28;20029;-61
2023/05/31 04:58:03;;;;;;;8.85;2.20;;;;;;;;;;8299374;28;20049;-60
2023/05/31 05:02:04;;;;;;;7.63;2.78;;;;;;;;;;8303402;28;20037;-60
2023/05/31 05:06:15;;;;;;;7.03;2.33;;;;;;;;;;8302943;28;20032;-60
2023/05/31 05:10:15;;;;;;;6.47;2.63;;;;;;;;;;8304048;28;20298;-61
2023/05/31 05:14:16;;;;;;;7.03;2.50;;;;;;;;;;8300943;28;20029;-60
2023/05/31 05:18:16;;;;;;;6.53;2.30;;;;;;;;;;8300339;28;20581;-60
2023/05/31 05:22:16;;;;;;;5.97;2.70;;;;;;;;;;8300610;28;20028;-60
2023/05/31 05:26:16;;;;;;;6.95;2.28;;;;;;;;;;8304173;28;20246;-60
2023/05/31 05:30:18;;;;;;;11.07;2.50;;;;;;;;;;8298056;28;20943;-61
2023/05/31 05:34:19;;;;;;;7.13;2.42;;;;;;;;;;8297203;28;20032;-61
2023/05/31 05:38:20;;;;;;;8.57;2.58;;;;;;;;;;8297894;28;20033;-61
2023/05/31 05:42:20;;;;;;;5.43;2.33;;;;;;;;;;8301075;28;20025;-61
2023/05/31 05:46:21;;;;;;;3.47;2.15;;;;;;;;;;8297192;28;20417;-60
2023/05/31 05:50:21;;;;;;;6.53;2.70;;;;;;;;;;8300796;28;20031;-60
2023/05/31 05:54:21;;;;;;;8.38;2.22;;;;;;;;;;8298965;28;20030;-60
2023/05/31 05:58:21;;;;;;;9.88;2.50;;;;;;;;;;8300703;28;20366;-60
2023/05/31 06:02:22;;;;;;;7.05;2.33;;;;;;;;;;8300156;28;20042;-60
2023/05/31 06:06:22;;;;;;;4.27;2.30;;;;;;;;;;8299751;28;20701;-60
2023/05/31 06:10:23;;;;;;;6.25;2.45;;;;;;;;;;8313378;28;20029;-60
2023/05/31 06:14:23;;;;;;;5.05;2.15;;;;;;;;;;8300369;28;20029;-61
2023/05/31 06:18:23;;;;;;;3.80;2.13;;;;;;;;;;8285280;28;20394;-62
2023/05/31 06:22:24;;;;;;;6.45;2.33;;;;;;;;;;8289865;28;20046;-61
2023/05/31 06:26:25;;;;;;;6.85;2.38;;;;;;;;;;8292601;28;20033;-60
2023/05/31 06:30:26;;;;;;;4.72;2.15;;;;;;;;;;8289784;28;20021;-61
2023/05/31 06:34:26;;;;;;;5.80;2.30;;;;;;;;;;8290855;28;20700;-61
2023/05/31 06:38:26;;;;;;;9.45;2.30;;;;;;;;;;8290769;28;20303;-61
2023/05/31 06:42:26;;;;;;;5.38;2.25;;;;;;;;;;8293410;28;20028;-61
2023/05/31 06:46:26;;;;;;;4.93;2.40;;;;;;;;;;8288875;28;20275;-61
2023/05/31 06:50:26;;;;;;;6.38;2.55;;;;;;;;;;8288104;28;20253;-61
2023/05/31 06:54:27;;;;;;;4.45;2.17;;;;;;;;;;8290632;28;20053;-61
2023/05/31 06:58:33;;;;;;;8.52;2.40;;;;;;;;;;8289457;28;20111;-61
2023/05/31 07:02:33;;;;;;;6.60;2.10;;;;;;;;;;8283970;28;20437;-61
2023/05/31 07:06:33;;;;;;;4.90;1.90;;;;;;;;;;8288020;28;20040;-61
2023/05/31 07:10:34;;;;;;;6.07;2.40;;;;;;;;;;8286705;28;20029;-62
2023/05/31 07:14:35;;;;;;;5.60;2.30;;;;;;;;;;8284531;28;20094;-61
2023/05/31 07:18:35;;;;;;;7.90;2.13;;;;;;;;;;8286988;28;20037;-61
2023/05/31 07:22:36;;;;;;;4.85;2.10;;;;;;;;;;8285420;28;20311;-61
2023/05/31 07:26:36;;;;;;;3.83;2.00;;;;;;;;;;8287933;28;20017;-61
2023/05/31 07:30:36;;;;;;;23.45;2.40;;;;;;;;;;8287579;28;20044;-61
2023/05/31 07:34:36;;;;;;;4.28;1.90;;;;;;;;;;8283621;28;20021;-61
2023/05/31 07:38:36;;;;;;;3.13;1.90;;;;;;;;;;8289328;28;20527;-61
2023/05/31 07:42:37;;;;;;;4.53;2.10;;;;;;;;;;8289086;28;20035;-61
2023/05/31 07:46:37;;;;;;;3.30;1.70;;;;;;;;;;8286614;28;20284;-61
2023/05/31 07:50:37;;;;;;;4.60;2.08;;;;;;;;;;8288523;28;20309;-61
2023/05/31 07:54:37;;;;;;;5.07;1.92;;;;;;;;;;8293376;28;20021;-61
2023/05/31 07:58:38;;;;;;;7.27;2.00;;;;;;;;;;8292593;28;20068;-61
2023/05/31 08:02:39;;;;;;;4.20;1.73;;;;;;;;;;8294224;28;21475;-62
2023/05/31 08:06:41;;;;;;;3.25;1.90;;;;;;;;;;8288815;28;20033;-61
2023/05/31 08:10:41;;;;;;;;;;;;;;;;;;8294525;28;20021;-61
2023/05/31 08:14:41;;;;;;;4.70;1.85;;;;;;;;;;8290805;28;19979;-61
2023/05/31 08:18:42;;;;;;;4.88;2.03;;;;;;;;;;8293343;28;20411;-61
2023/05/31 08:22:42;;;;;;;6.00;2.00;;;;;;;;;;8292897;28;20461;-61
2023/05/31 08:26:42;;;;;;;3.58;1.80;;;;;;;;;;8295636;28;20021;-61
2023/05/31 08:30:43;;;;;;;5.70;1.70;;;;;;;;;;8293257;28;20469;-61
2023/05/31 08:34:45;;;;;;;5.30;2.38;;;;;;;;;;8294994;28;21065;-61
2023/05/31 08:38:45;;;;;;;6.28;1.83;;;;;;;;;;8293003;28;20021;-61
2023/05/31 08:42:45;;;;;;;7.82;2.00;;;;;;;;;;8293935;28;20126;-61
2023/05/31 08:46:47;;;;;;;8.35;2.30;;;;;;;;;;8292741;28;20129;-61
2023/05/31 08:50:48;;;;;;;3.78;2.00;;;;;;;;;;8294059;28;20037;-61
2023/05/31 08:54:49;;;;;;;8.18;2.20;;;;;;;;;;8295058;28;20025;-61
2023/05/31 08:58:49;;;;;;;6.97;1.95;;;;;;;;;;8295602;28;20025;-61
2023/05/31 09:02:51;;;;;;;4.63;1.80;;;;;;;;;;8291595;28;20398;-61
2023/05/31 09:06:52;;;;;;;6.47;2.45;;;;;;;;;;8292035;28;20837;-60
2023/05/31 09:10:52;;;;;;;3.13;1.70;;;;;;;;;;8292453;28;20687;-61
2023/05/31 09:14:52;;;;;;;4.20;1.70;;;;;;;;;;8293758;28;20025;-61
2023/05/31 09:19:05;;;;;;;4.47;1.63;;;;;;;;;;8283881;28;20573;-61
2023/05/31 09:23:07;;;;;;;3.05;2.00;;;;;;;;;;8288688;28;20025;-61
2023/05/31 09:27:08;;;;;;;4.07;1.80;;;;;;;;;;8293780;28;20039;-61
2023/05/31 09:31:08;;;;;;;6.32;2.10;;;;;;;;;;8291744;28;20143;-61
2023/05/31 09:35:12;;;;;;;4.60;1.90;;;;;;;;;;8290643;28;20032;-61
2023/05/31 09:39:13;;;;;;;6.30;1.90;;;;;;;;;;8291757;28;20385;-60
2023/05/31 09:43:15;;;;;;;4.75;1.80;;;;;;;;;;8291741;28;20032;-60
2023/05/31 09:47:15;;;;;;;4.05;1.98;;;;;;;;;;8290961;28;20115;-61
2023/05/31 09:51:15;;;;;;;4.97;2.10;;;;;;;;;;8291472;28;20029;-61
2023/05/31 09:55:16;;;;;;;6.13;1.60;;;;;;;;;;8288866;28;20025;-60
2023/05/31 09:59:17;;;;;;;7.47;1.92;;;;;;;;;;8291532;28;20013;-60
2023/05/31 10:03:17;;;;;;;3.07;1.70;;;;;;;;;;8290976;28;20041;-60
2023/05/31 10:07:18;;;;;;;4.75;1.90;;;;;;;;;;8296890;28;20367;-60
2023/05/31 10:11:24;;;;;;;5.03;1.85;;;;;;;;;;8294517;28;20512;-60
2023/05/31 10:15:25;;;;;;;4.72;1.90;;;;;;;;;;8311840;28;20067;-61
2023/05/31 10:19:30;;;;;;;7.22;2.17;;;;;;;;;;8290791;28;20032;-60
2023/05/31 10:23:34;;;;;;;4.35;1.80;;;;;;;;;;8299993;28;20045;-61
2023/05/31 10:27:37;;;;;;;4.65;2.03;;;;;;;;;;8287637;28;20375;-61
2023/05/31 10:31:42;;;;;;;4.15;1.85;;;;;;;;;;8290328;28;20072;-61
2023/05/31 10:35:44;;;;;;;4.00;1.70;;;;;;;;;;8290697;28;20021;-61
2023/05/31 10:40:05;;;;;;;2.58;1.60;;;;;;;;;;8289004;28;20414;-61
2023/05/31 10:44:09;;;;;;;7.40;2.00;;;;;;;;;;8284724;28;20473;-61
2023/05/31 10:48:28;;;;;;;2.67;1.60;;;;;;;;;;8285892;28;20508;-60
2023/05/31 10:52:29;;;;;;;4.03;1.67;;;;;;;;;;8291271;28;20417;-60
2023/05/31 10:56:29;;;;;;;6.75;1.70;;;;;;;;;;8290541;28;20119;-60
2023/05/31 11:00:30;;;;;;;3.42;1.70;;;;;;;;;;8289665;28;20041;-60
2023/05/31 11:04:30;;;;;;;3.67;1.70;;;;;;;;;;8288184;28;20040;-60
2023/05/31 11:08:30;;;;;;;3.80;1.53;;;;;;;;;;8294829;28;20337;-61
2023/05/31 11:12:34;;;;;;;6.32;1.70;;;;;;;;;;8287772;28;20178;-61
2023/05/31 11:16:56;;;;;;;2.67;1.60;;;;;;;;;;8288066;28;20091;-61
2023/05/31 11:20:56;;;;;;;4.15;1.50;;;;;;;;;;8293248;28;20405;-61
2023/05/31 11:24:58;;;;;;;6.60;1.60;;;;;;;;;;8292456;28;20036;-60
2023/05/31 11:29:01;;;;;;;4.40;1.60;;;;;;;;;;8287403;28;20029;-60
2023/05/31 11:33:03;;;;;;;3.83;1.30;;;;;;;;;;8294970;28;20029;-61
2023/05/31 11:37:04;;;;;;;4.00;1.40;;;;;;;;;;8297216;28;20036;-60
2023/05/31 11:41:05;;;;;;;4.55;1.65;;;;;;;;;;8297574;28;20033;-61
2023/05/31 11:45:05;;;;;;;2.85;1.60;;;;;;;;;;8291590;28;20323;-61
2023/05/31 11:49:05;;;;;;;6.80;1.50;;;;;;;;;;8286121;28;20065;-61
2023/05/31 11:53:06;;;;;;;3.17;1.40;;;;;;;;;;8293277;28;20152;-61
2023/05/31 11:57:08;;;;;;;4.05;1.50;;;;;;;;;;8288513;28;20768;-60
2023/05/31 12:01:11;;;;;;;3.05;1.63;;;;;;;;;;8292167;28;20867;-61
2023/05/31 12:05:12;;;;;;;2.40;1.38;;;;;;;;;;8285987;28;20544;-61
2023/05/31 12:09:13;;;;;;;2.97;1.77;;;;;;;;;;8283510;28;20025;-61
2023/05/31 12:13:16;;;;;;;2.45;1.40;;;;;;;;;;8288404;28;20115;-61
2023/05/31 12:17:16;;;;;;;3.13;1.60;;;;;;;;;;8289473;28;20352;-61
2023/05/31 12:21:17;;;;;;;4.68;1.75;;;;;;;;;;8282150;28;20577;-61
2023/05/31 12:25:17;;;;;;;4.80;1.63;;;;;;;;;;8287065;28;20034;-61
2023/05/31 12:29:18;;;;;;;6.50;1.88;;;;;;;;;;8284915;28;20027;-61
2023/05/31 12:33:18;;;;;;;5.93;1.70;;;;;;;;;;8288742;28;20556;-61
2023/05/31 12:37:18;;;;;;;3.50;1.70;;;;;;;;;;8294264;28;20548;-61
2023/05/31 12:41:18;;;;;;;3.73;1.63;;;;;;;;;;8294273;28;20310;-62
2023/05/31 12:45:19;;;;;;;1.40;1.30;;;;;;;;;;8294650;28;20392;-62
2023/05/31 12:49:19;;;;;;;2.65;1.63;;;;;;;;;;8294759;28;20025;-62
2023/05/31 12:53:20;;;;;;;3.05;1.50;;;;;;;;;;8294570;28;20482;-61
2023/05/31 12:57:20;;;;;;;2.15;1.40;;;;;;;;;;8294908;28;20033;-61
2023/05/31 13:01:23;;;;;;;5.87;1.50;;;;;;;;;;8291504;28;20488;-61
2023/05/31 13:05:25;;;;;;;4.10;1.58;;;;;;;;;;8293232;28;20291;-61
2023/05/31 13:09:25;;;;;;;6.75;1.50;;;;;;;;;;8291850;28;20409;-62
2023/05/31 13:13:25;;;;;;;3.80;1.70;;;;;;;;;;8293858;28;20637;-61
2023/05/31 13:17:26;;;;;;;1.90;1.45;;;;;;;;;;8289299;28;20136;-61
2023/05/31 13:21:26;;;;;;;3.17;1.35;;;;;;;;;;8292388;28;20025;-61
2023/05/31 13:25:27;;;;;;;2.78;1.50;;;;;;;;;;8292185;28;20029;-61
2023/05/31 13:29:27;;;;;;;3.08;1.67;;;;;;;;;;8299332;28;20047;-60
2023/05/31 13:33:28;;;;;;;3.70;1.40;;;;;;;;;;8295930;28;20044;-59
2023/05/31 13:37:28;;;;;;;4.65;1.60;;;;;;;;;;8292925;28;20017;-60
2023/05/31 13:41:28;;;;;;;5.03;1.40;;;;;;;;;;8297513;28;20028;-61
2023/05/31 13:45:28;;;;;;;4.37;1.50;;;;;;;;;;8298530;28;20051;-60
2023/05/31 13:49:29;;;;;;;3.13;1.50;;;;;;;;;;8292426;28;20279;-60
2023/05/31 13:53:29;;;;;;;3.55;1.60;;;;;;;;;;8296770;28;20097;-60
2023/05/31 13:57:29;;;;;;;4.57;1.55;;;;;;;;;;8296825;28;20021;-60
2023/05/31 14:01:30;;;;;;;3.80;1.70;;;;;;;;;;8296870;28;20122;-60
2023/05/31 14:05:30;;;;;;;5.68;1.60;;;;;;;;;;8295376;28;21142;-60
2023/05/31 14:09:30;;;;;;;1.97;1.30;;;;;;;;;;8298611;28;20791;-60
2023/05/31 14:13:31;;;;;;;4.70;1.63;;;;;;;;;;8296295;28;20056;-61
2023/05/31 14:17:31;;;;;;;4.22;1.50;;;;;;;;;;8296327;28;20044;-60
2023/05/31 14:21:32;;;;;;;3.65;1.75;;;;;;;;;;8294608;28;20132;-60
2023/05/31 14:25:32;;;;;;;3.15;1.50;;;;;;;;;;8297654;28;20965;-60
2023/05/31 14:29:32;;;;;;;4.63;1.50;;;;;;;;;;8296186;28;20036;-60
2023/05/31 14:33:32;;;;;;;5.00;1.60;;;;;;;;;;8300081;28;20098;-60
2023/05/31 14:37:32;;;;;;;7.07;1.60;;;;;;;;;;8294436;28;20029;-61
2023/05/31 14:41:33;;;;;;;2.10;1.40;;;;;;;;;;8293057;28;20115;-61
2023/05/31 14:45:33;;;;;;;3.90;1.75;;;;;;;;;;8288331;28;21001;-62
2023/05/31 14:49:33;;;;;;;2.88;1.40;;;;;;;;;;8290423;28;20083;-62
2023/05/31 14:53:33;;;;;;;2.30;1.30;;;;;;;;;;8290288;28;20391;-62
2023/05/31 14:57:33;;;;;;;1.55;1.30;;;;;;;;;;8289484;28;20079;-63
2023/05/31 15:01:34;;;;;;;3.30;1.48;;;;;;;;;;8291010;28;20060;-62
2023/05/31 15:05:34;;;;;;;4.80;1.58;;;;;;;;;;8288107;28;20082;-62
2023/05/31 15:09:35;;;;;;;4.20;1.60;;;;;;;;;;8284705;28;20029;-61
2023/05/31 15:13:36;;;;;;;3.03;1.40;;;;;;;;;;8288249;28;20089;-62
2023/05/31 15:17:36;;;;;;;2.38;1.48;;;;;;;;;;8286707;28;20152;-65
2023/05/31 15:21:36;;;;;;;1.90;1.60;;;;;;;;;;8286975;28;20023;-62
2023/05/31 15:25:36;;;;;;;2.38;1.30;;;;;;;;;;8287419;28;20429;-63
2023/05/31 15:29:37;;;;;;;1.85;1.30;;;;;;;;;;8285372;28;20337;-62
2023/05/31 15:33:37;;;;;;;5.20;1.50;;;;;;;;;;8289133;28;20120;-62
2023/05/31 15:37:38;;;;;;;3.25;1.40;;;;;;;;;;8287582;28;20691;-62
2023/05/31 15:41:38;;;;;;;5.13;1.40;;;;;;;;;;8294297;28;20059;-62
2023/05/31 15:45:38;;;;;;;2.25;1.20;;;;;;;;;;8290763;28;20052;-62
2023/05/31 15:49:38;;;;;;;1.50;1.40;;;;;;;;;;8285876;28;20313;-62
2023/05/31 15:53:39;;;;;;;2.47;1.13;;;;;;;;;;8291101;28;20045;-63
2023/05/31 15:57:39;;;;;;;2.00;1.23;;;;;;;;;;8289269;28;20017;-62
2023/05/31 16:01:40;;;;;;;3.28;1.60;;;;;;;;;;8288257;28;20075;-62
2023/05/31 16:05:40;;;;;;;2.72;1.40;;;;;;;;;;8289372;28;20017;-62
2023/05/31 16:09:40;;;;;;;2.50;1.50;;;;;;;;;;8286746;28;20516;-62
2023/05/31 16:13:40;;;;;;;5.22;1.42;;;;;;;;;;8294016;28;20444;-62
2023/05/31 16:17:41;;;;;;;3.00;1.43;;;;;;;;;;8292651;28;20161;-62
2023/05/31 16:21:41;;;;;;;2.97;1.40;;;;;;;;;;8295252;28;20052;-63
2023/05/31 16:25:41;;;;;;;2.58;1.50;;;;;;;;;;8295173;28;20028;-62
2023/05/31 16:29:42;;;;;;;4.78;1.50;;;;;;;;;;8293492;28;20029;-62
2023/05/31 16:33:42;;;;;;;3.37;1.40;;;;;;;;;;8294215;28;21005;-62
2023/05/31 16:37:42;;;;;;;4.23;1.40;;;;;;;;;;8293331;28;20349;-62
2023/05/31 16:41:42;;;;;;;6.15;1.42;;;;;;;;;;8295133;28;20053;-62
2023/05/31 16:45:42;;;;;;;4.55;1.20;;;;;;;;;;8295356;28;20416;-62
2023/05/31 16:49:43;;;;;;;3.58;1.42;;;;;;;;;;8292387;28;20072;-62
2023/05/31 16:53:43;;;;;;;2.73;1.43;;;;;;;;;;8295703;28;20285;-62
2023/05/31 16:57:43;;;;;;;7.15;1.60;;;;;;;;;;8291575;28;20521;-62
2023/05/31 17:01:43;;;;;;;5.70;1.40;;;;;;;;;;8293520;28;20465;-62
2023/05/31 17:05:43;;;;;;;2.35;1.45;;;;;;;;;;8292860;28;20017;-62
2023/05/31 17:09:44;;;;;;;2.63;1.20;;;;;;;;;;8292730;28;20032;-62
2023/05/31 17:13:44;;;;;;;4.27;1.50;;;;;;;;;;8292362;28;20537;-62
2023/05/31 17:17:44;;;;;;;7.10;1.50;;;;;;;;;;8292840;28;20534;-62
2023/05/31 17:21:44;;;;;;;8.52;1.67;;;;;;;;;;8293865;28;20571;-62
2023/05/31 17:25:44;;;;;;;5.80;1.52;;;;;;;;;;8291202;28;20022;-62
2023/05/31 17:29:45;;;;;;;9.00;1.60;;;;;;;;;;8293924;28;20051;-62
2023/05/31 17:33:45;;;;;;;7.20;1.73;;;;;;;;;;8291468;28;20029;-62
2023/05/31 17:37:45;;;;;;;4.97;1.50;;;;;;;;;;8292908;28;20601;-62
2023/05/31 17:41:45;;;;;;;3.00;1.40;;;;;;;;;;8291019;28;20242;-62
2023/05/31 17:45:47;;;;;;;4.88;1.50;;;;;;;;;;8292884;28;20045;-62
2023/05/31 17:49:48;;;;;;;3.20;1.77;;;;;;;;;;8289585;28;20748;-62
2023/05/31 17:53:48;;;;;;;4.82;1.58;;;;;;;;;;8294522;28;20025;-62
2023/05/31 17:57:48;;;;;;;4.33;1.30;;;;;;;;;;8291009;28;20041;-62
2023/05/31 18:01:48;;;;;;;2.20;1.40;;;;;;;;;;8291477;28;20257;-62
2023/05/31 18:05:48;;;;;;;5.28;1.33;;;;;;;;;;8291853;28;20029;-62
2023/05/31 18:09:49;;;;;;;2.45;1.40;;;;;;;;;;8290526;28;20541;-62
2023/05/31 18:13:50;;;;;;;2.60;1.65;;;;;;;;;;8293034;28;20036;-62
2023/05/31 18:17:51;;;;;;;3.00;1.40;;;;;;;;;;8290122;28;20037;-63
2023/05/31 18:21:53;;;;;;;3.65;1.48;;;;;;;;;;8292236;28;20892;-62
2023/05/31 18:25:53;;;;;;;4.32;1.63;;;;;;;;;;8290482;28;20363;-62
2023/05/31 18:29:53;;;;;;;3.65;1.63;;;;;;;;;;8288893;28;20033;-62
2023/05/31 18:33:55;;;;;;;2.47;1.58;;;;;;;;;;8290066;28;20870;-62
2023/05/31 18:37:56;;;;;;;3.72;1.55;;;;;;;;;;8288957;28;20573;-62
2023/05/31 18:41:56;;;;;;;3.60;1.48;;;;;;;;;;8290919;28;20075;-62
2023/05/31 18:45:57;;;;;;;3.13;1.40;;;;;;;;;;8290256;28;20037;-62
2023/05/31 18:49:57;;;;;;;4.38;1.50;;;;;;;;;;8289445;28;20136;-63
2023/05/31 18:53:57;;;;;;;3.10;1.50;;;;;;;;;;8289014;28;20366;-62
2023/05/31 18:57:58;;;;;;;4.57;1.65;;;;;;;;;;8290206;28;20244;-62
2023/05/31 19:01:58;;;;;;;2.35;1.60;;;;;;;;;;8289149;28;20202;-62
2023/05/31 19:05:58;;;;;;;3.78;1.73;;;;;;;;;;8287019;28;20413;-62
2023/05/31 19:09:58;;;;;;;3.40;1.60;;;;;;;;;;8287141;28;20021;-62
2023/05/31 19:13:59;;;;;;;4.40;1.67;;;;;;;;;;8291095;28;20056;-62
2023/05/31 19:17:59;;;;;;;5.80;1.73;;;;;;;;;;8289421;28;20136;-62
2023/05/31 19:21:59;;;;;;;4.45;1.67;;;;;;;;;;8288357;28;20017;-62
2023/05/31 19:25:59;;;;;;;2.40;1.50;;;;;;;;;;8289529;28;20024;-62
2023/05/31 19:30:00;;;;;;;7.22;1.67;;;;;;;;;;8290332;28;20397;-62
2023/05/31 19:34:00;;;;;;;3.72;1.60;;;;;;;;;;8289616;28;21045;-62
2023/05/31 19:38:00;;;;;;;2.83;1.60;;;;;;;;;;8287268;28;20451;-62
2023/05/31 19:42:00;;;;;;;2.47;1.35;;;;;;;;;;8289397;28;20020;-62
2023/05/31 19:46:00;;;;;;;3.30;1.75;;;;;;;;;;8288060;28;20144;-62
2023/05/31 19:50:00;;;;;;;4.80;1.58;;;;;;;;;;8295729;28;20780;-62
2023/05/31 19:54:01;;;;;;;4.70;1.63;;;;;;;;;;8294512;28;20068;-62
2023/05/31 19:58:01;;;;;;;2.25;1.40;;;;;;;;;;8297337;28;20030;-62
2023/05/31 20:02:01;;;;;;;2.67;1.60;;;;;;;;;;8295258;28;20033;-62
2023/05/31 20:06:01;;;;;;;4.47;1.60;;;;;;;;;;8293195;28;20028;-62
2023/05/31 20:10:02;;;;;;;6.68;1.80;;;;;;;;;;8294693;28;20025;-62
2023/05/31 20:14:02;;;;;;;3.42;1.73;;;;;;;;;;8296586;28;20664;-62
2023/05/31 20:18:03;;;;;;;3.53;1.77;;;;;;;;;;8290353;28;20034;-62
2023/05/31 20:22:03;;;;;;;3.03;1.60;;;;;;;;;;8294613;28;20076;-62
2023/05/31 20:26:03;;;;;;;3.27;1.60;;;;;;;;;;8292964;28;20029;-62
2023/05/31 20:30:03;;;;;;;5.18;1.67;;;;;;;;;;8288283;28;20290;-62
2023/05/31 20:34:06;;;;;;;4.18;1.70;;;;;;;;;;8293386;28;20096;-62
2023/05/31 20:38:07;;;;;;;7.07;1.80;;;;;;;;;;8294509;28;20041;-62
2023/05/31 20:42:07;;;;;;;2.10;1.42;;;;;;;;;;8294694;28;20141;-63
2023/05/31 20:46:07;;;;;;;4.00;1.40;;;;;;;;;;8294822;28;20607;-62
2023/05/31 20:50:11;;;;;;;3.00;1.70;;;;;;;;;;8291466;28;20108;-62
2023/05/31 20:54:12;;;;;;;3.10;1.52;;;;;;;;;;8298271;28;20025;-62
2023/05/31 20:58:12;;;;;;;5.90;1.65;;;;;;;;;;8300696;28;20028;-63
2023/05/31 21:02:13;;;;;;;3.00;1.38;;;;;;;;;;8301231;28;20727;-62
2023/05/31 21:06:13;;;;;;;3.10;1.52;;;;;;;;;;8302871;28;20068;-62
2023/05/31 21:10:14;;;;;;;3.25;1.70;;;;;;;;;;8300975;28;20032;-62
2023/05/31 21:14:14;;;;;;;1.80;1.52;;;;;;;;;;8305480;28;20033;-62
2023/05/31 21:18:14;;;;;;;3.43;1.50;;;;;;;;;;8299822;28;20068;-62
2023/05/31 21:22:15;;;;;;;2.83;1.67;;;;;;;;;;8302338;28;20275;-62
2023/05/31 21:26:15;;;;;;;3.28;1.60;;;;;;;;;;8302634;28;20033;-62
2023/05/31 21:30:15;;;;;;;4.05;1.52;;;;;;;;;;8299907;28;20064;-62
2023/05/31 21:34:15;;;;;;;2.95;1.80;;;;;;;;;;8304326;28;20360;-62
2023/05/31 21:38:15;;;;;;;3.08;1.45;;;;;;;;;;8299342;28;20040;-62
2023/05/31 21:42:16;;;;;;;5.13;1.70;;;;;;;;;;8299636;28;20025;-62
2023/05/31 21:46:18;;;;;;;3.60;1.65;;;;;;;;;;8297148;28;20037;-62
2023/05/31 21:50:18;;;;;;;3.03;1.77;;;;;;;;;;8299123;28;21144;-61
2023/05/31 21:54:18;;;;;;;4.53;1.50;;;;;;;;;;8299695;28;20648;-62
2023/05/31 21:58:19;;;;;;;1.92;1.40;;;;;;;;;;8298033;28;20581;-62
2023/05/31 22:02:19;;;;;;;3.67;1.55;;;;;;;;;;8297039;28;20218;-62
2023/05/31 22:06:19;;;;;;;2.58;1.58;;;;;;;;;;8302101;28;20033;-61
2023/05/31 22:10:19;;;;;;;3.22;1.73;;;;;;;;;;8300996;28;20036;-62
2023/05/31 22:14:20;;;;;;;6.43;1.80;;;;;;;;;;8301168;28;20079;-61
2023/05/31 22:18:20;;;;;;;2.95;1.65;;;;;;;;;;8301184;28;20302;-62
2023/05/31 22:22:20;;;;;;;3.30;1.50;;;;;;;;;;8299866;28;20059;-62
2023/05/31 22:26:21;;;;;;;2.15;1.50;;;;;;;;;;8299331;28;20145;-62
2023/05/31 22:30:22;;;;;;;3.00;1.23;;;;;;;;;;8301014;28;20029;-61
2023/05/31 22:34:24;;;;;;;2.58;1.45;;;;;;;;;;8300455;28;20823;-62
2023/05/31 22:38:24;;;;;;;4.90;1.70;;;;;;;;;;8299927;28;20690;-61
2023/05/31 22:42:24;;;;;;;3.78;1.48;;;;;;;;;;8300132;28;20063;-62
2023/05/31 22:46:25;;;;;;;4.77;1.50;;;;;;;;;;8299350;28;20047;-61
2023/05/31 22:50:25;;;;;;;1.90;1.40;;;;;;;;;;8300281;28;20029;-62
2023/05/31 22:54:26;;;;;;;4.32;1.77;;;;;;;;;;8299195;28;20032;-61
2023/05/31 22:58:26;;;;;;;3.42;1.60;;;;;;;;;;8296860;28;20024;-61
2023/05/31 23:02:27;;;;;;;3.83;1.77;;;;;;;;;;8298154;28;20041;-62
2023/05/31 23:06:27;;;;;;;2.13;1.63;;;;;;;;;;8297109;28;20033;-62
2023/05/31 23:10:31;;;;;;;3.20;1.52;;;;;;;;;;8297651;28;20108;-62
2023/05/31 23:14:32;;;;;;;2.60;1.50;;;;;;;;;;8299625;28;20025;-61
2023/05/31 23:18:32;;;;;;;2.97;1.42;;;;;;;;;;8295290;28;20052;-61
2023/05/31 23:22:32;;;;;;;2.57;1.80;;;;;;;;;;8299049;28;20033;-61
2023/05/31 23:26:33;;;;;;;2.28;1.50;;;;;;;;;;8300885;28;20325;-62
2023/05/31 23:30:33;;;;;;;5.35;1.58;;;;;;;;;;8298726;28;20034;-62
2023/05/31 23:34:34;;;;;;;5.25;1.42;;;;;;;;;;8297153;28;20106;-62
2023/05/31 23:38:36;;;;;;;3.13;1.75;;;;;;;;;;8298754;28;20270;-61
2023/05/31 23:42:36;;;;;;;2.80;1.35;;;;;;;;;;8300129;28;20032;-62
2023/05/31 23:46:36;;;;;;;4.05;1.50;;;;;;;;;;8297641;28;20048;-62
2023/05/31 23:50:37;;;;;;;4.85;1.45;;;;;;;;;;8298216;28;20040;-62
2023/05/31 23:54:37;;;;;;;1.60;1.50;;;;;;;;;;8297091;28;20033;-62
2023/05/31 23:58:37;;;;;;;4.63;1.60;;;;;;;;;;8297770;28;20094;-62
